Time;durP1;ratioP1;P1;durP2;ratioP2;P2;SDS_P1;SDS_P2;PMS_P1;PMS_P2;Temp;Humidity;BMP_temperature;BMP_pressure;BME280_temperature;BME280_humidity;BME280_pressure;Samples;Min_cycle;Max_cycle;Signal;HPM_P1;HPM_P2
2023/04/16 00:00:30;;;;;;;19.20;9.00;;;;;;;6.36;100.00;101862.30;107170;1282;72672;-78
2023/04/16 00:02:55;;;;;;;16.20;8.60;;;;;;;6.40;100.00;101864.17;107174;1282;58289;-78
2023/04/16 00:05:21;;;;;;;21.80;8.50;;;;;;;6.44;100.00;101873.50;107168;1282;58330;-78
2023/04/16 00:07:46;;;;;;;18.50;8.80;;;;;;;6.47;100.00;101879.73;106643;1282;58268;-78
2023/04/16 00:10:13;;;;;;;19.50;8.50;;;;;;;6.48;100.00;101874.70;106617;1287;58238;-78
2023/04/16 00:12:38;;;;;;;19.60;8.80;;;;;;;6.52;100.00;101883.36;106322;1287;74404;-77
2023/04/16 00:15:04;;;;;;;21.60;9.00;;;;;;;6.53;100.00;101878.17;106600;1287;58383;-77
2023/04/16 00:17:30;;;;;;;20.10;9.30;;;;;;;6.53;100.00;101874.27;106545;1288;58595;-78
2023/04/16 00:19:55;;;;;;;20.50;9.00;;;;;;;6.51;100.00;101880.73;106573;1287;58336;-77
2023/04/16 00:22:21;;;;;;;18.30;9.00;;;;;;;6.48;100.00;101884.59;106638;1288;58421;-78
2023/04/16 00:24:46;;;;;;;21.10;9.00;;;;;;;6.45;100.00;101886.89;106317;1287;73227;-77
2023/04/16 00:27:12;;;;;;;25.00;8.40;;;;;;;6.38;100.00;101887.02;106555;1287;58301;-79
2023/04/16 00:29:37;;;;;;;19.40;9.10;;;;;;;6.30;100.00;101885.26;106316;1287;58429;-77
2023/04/16 00:32:03;;;;;;;23.60;9.50;;;;;;;6.25;100.00;101880.96;106564;1288;58298;-77
2023/04/16 00:34:28;;;;;;;15.60;8.20;;;;;;;6.19;100.00;101883.81;106648;1287;58406;-77
2023/04/16 00:36:54;;;;;;;19.90;9.30;;;;;;;6.12;100.00;101882.38;106592;1287;58705;-77
2023/04/16 00:39:19;;;;;;;20.60;8.80;;;;;;;6.06;100.00;101879.79;106584;1287;58645;-78
2023/04/16 00:41:45;;;;;;;21.70;10.10;;;;;;;6.03;100.00;101886.84;106880;1283;58384;-77
2023/04/16 00:44:10;;;;;;;26.70;8.90;;;;;;;6.01;100.00;101888.78;107047;1283;58260;-77
2023/04/16 00:46:36;;;;;;;19.80;8.90;;;;;;;5.99;100.00;101890.34;107114;1283;58312;-77
2023/04/16 00:49:03;;;;;;;19.60;8.80;;;;;;;5.98;100.00;101895.64;107091;1283;60107;-77
2023/04/16 00:51:28;;;;;;;18.80;8.90;;;;;;;5.96;100.00;101893.48;107119;1283;58835;-77
2023/04/16 00:53:55;;;;;;;19.50;8.80;;;;;;;5.92;100.00;101892.05;107106;1283;58265;-77
2023/04/16 00:56:22;;;;;;;19.60;9.30;;;;;;;5.90;100.00;101893.79;107092;1283;58224;-77
2023/04/16 00:58:48;;;;;;;17.90;8.60;;;;;;;5.86;100.00;101891.09;106616;1287;59080;-77
2023/04/16 01:01:14;;;;;;;18.30;9.10;;;;;;;5.80;100.00;101893.68;107075;1283;58275;-78
2023/04/16 01:03:44;;;;;;;17.70;9.00;;;;;;;5.73;100.00;101894.13;107119;1283;58496;-77
2023/04/16 01:06:11;;;;;;;23.40;9.50;;;;;;;5.66;100.00;101890.79;107041;1283;74171;-77
2023/04/16 01:08:37;;;;;;;21.00;9.20;;;;;;;5.59;100.00;101890.91;107062;1283;58214;-77
2023/04/16 01:11:03;;;;;;;25.10;9.50;;;;;;;5.56;100.00;101891.58;107075;1283;58188;-77
2023/04/16 01:13:29;;;;;;;22.80;9.60;;;;;;;5.51;100.00;101894.64;106931;1283;59090;-77
2023/04/16 01:15:54;;;;;;;23.30;9.80;;;;;;;5.46;100.00;101894.31;107095;1283;58201;-77
2023/04/16 01:18:21;;;;;;;26.50;9.60;;;;;;;5.41;100.00;101893.00;107079;1283;58207;-78
2023/04/16 01:20:47;;;;;;;24.80;9.70;;;;;;;5.36;100.00;101892.63;107055;1283;58284;-77
2023/04/16 01:23:14;;;;;;;19.10;9.50;;;;;;;5.32;100.00;101894.55;107015;1283;58245;-78
2023/04/16 01:25:39;;;;;;;23.40;9.50;;;;;;;5.28;100.00;101898.46;107079;1283;58539;-77
2023/04/16 01:28:06;;;;;;;22.00;9.90;;;;;;;5.23;100.00;101894.73;107091;1283;58554;-77
2023/04/16 01:30:31;;;;;;;25.30;10.20;;;;;;;5.21;100.00;101894.47;106826;1283;58345;-77
2023/04/16 01:32:57;;;;;;;25.10;9.60;;;;;;;5.15;100.00;101890.50;107013;1283;62015;-76
2023/04/16 01:35:23;;;;;;;21.20;9.80;;;;;;;5.08;100.00;101886.16;106656;1283;58803;-77
2023/04/16 01:37:50;;;;;;;25.70;10.40;;;;;;;5.03;100.00;101882.55;107054;1283;58221;-76
2023/04/16 01:40:16;;;;;;;21.00;9.90;;;;;;;4.96;100.00;101881.69;106663;1283;58397;-77
2023/04/16 01:42:41;;;;;;;22.70;10.10;;;;;;;4.92;100.00;101875.62;107067;1283;58247;-77
2023/04/16 01:45:07;;;;;;;22.20;10.10;;;;;;;4.89;100.00;101876.21;107086;1283;58318;-76
2023/04/16 01:47:32;;;;;;;24.80;11.20;;;;;;;4.86;100.00;101872.08;107072;1283;58240;-77
2023/04/16 01:49:59;;;;;;;25.70;10.80;;;;;;;4.83;100.00;101867.19;107126;1283;58294;-76
2023/04/16 01:52:24;;;;;;;24.10;10.20;;;;;;;4.81;100.00;101868.27;107021;1283;72842;-76
2023/04/16 01:54:50;;;;;;;24.10;10.80;;;;;;;4.79;100.00;101868.79;106614;1288;58695;-77
2023/04/16 01:57:15;;;;;;;23.80;10.90;;;;;;;4.78;100.00;101867.59;107072;1283;59010;-75
2023/04/16 01:59:41;;;;;;;23.20;10.20;;;;;;;4.76;100.00;101865.59;107104;1283;58343;-77
2023/04/16 02:02:11;;;;;;;20.10;10.90;;;;;;;4.74;100.00;101870.23;107082;1283;58384;-76
2023/04/16 02:04:39;;;;;;;29.70;11.20;;;;;;;4.72;100.00;101867.27;107012;1283;61087;-77
2023/04/16 02:07:06;;;;;;;20.30;10.30;;;;;;;4.71;100.00;101865.99;107048;1283;60037;-76
2023/04/16 02:09:34;;;;;;;21.90;11.50;;;;;;;4.72;100.00;101875.16;107065;1283;58219;-76
2023/04/16 02:12:02;;;;;;;26.50;10.50;;;;;;;4.70;100.00;101873.34;107056;1283;73428;-76
2023/04/16 02:14:28;;;;;;;34.60;11.20;;;;;;;4.70;100.00;101875.17;107058;1283;73475;-76
2023/04/16 02:16:53;;;;;;;24.40;10.40;;;;;;;4.69;100.00;101871.92;107070;1283;58417;-75
2023/04/16 02:19:19;;;;;;;22.00;10.40;;;;;;;4.68;100.00;101871.31;107053;1283;58300;-77
2023/04/16 02:21:44;;;;;;;23.20;10.70;;;;;;;4.66;100.00;101871.08;106731;1283;58390;-77
2023/04/16 02:24:10;;;;;;;22.40;10.40;;;;;;;4.64;100.00;101869.83;107038;1283;58302;-77
2023/04/16 02:26:36;;;;;;;24.00;10.80;;;;;;;4.63;100.00;101876.77;107068;1283;58364;-77
2023/04/16 02:29:01;;;;;;;27.50;11.70;;;;;;;4.61;100.00;101873.45;106854;1283;58367;-76
2023/04/16 02:31:27;;;;;;;24.30;11.40;;;;;;;4.59;100.00;101875.98;107154;1283;58417;-74
2023/04/16 02:33:53;;;;;;;25.20;11.50;;;;;;;4.57;100.00;101875.52;107159;1282;58202;-76
2023/04/16 02:36:19;;;;;;;22.90;11.30;;;;;;;4.56;100.00;101882.09;107122;1282;58225;-75
2023/04/16 02:38:44;;;;;;;23.00;10.40;;;;;;;4.55;100.00;101884.11;107178;1282;58325;-76
2023/04/16 02:41:10;;;;;;;22.40;12.20;;;;;;;4.53;100.00;101884.07;106976;1282;312429;-75
2023/04/16 02:43:35;;;;;;;26.40;11.60;;;;;;;4.51;100.00;101884.05;107178;1282;73750;-75
2023/04/16 02:46:01;;;;;;;28.30;12.30;;;;;;;4.51;100.00;101889.64;107140;1282;59359;-76
2023/04/16 02:48:26;;;;;;;24.50;12.00;;;;;;;4.50;100.00;101889.31;106796;1283;58342;-76
2023/04/16 02:50:52;;;;;;;26.50;11.80;;;;;;;4.50;100.00;101889.00;107191;1282;58468;-77
2023/04/16 02:53:17;;;;;;;26.50;12.40;;;;;;;4.50;100.00;101887.98;107251;1282;58568;-77
2023/04/16 02:55:53;;;;;;;24.10;12.00;;;;;;;4.51;100.00;101879.13;107146;1282;58207;-77
2023/04/16 02:58:24;;;;;;;24.80;12.60;;;;;;;4.52;100.00;101882.53;107140;1282;61120;-77
2023/04/16 03:00:50;;;;;;;30.80;12.10;;;;;;;4.55;100.00;101881.51;107186;1282;60959;-77
2023/04/16 03:03:16;;;;;;;26.20;11.60;;;;;;;4.57;100.00;101880.50;107144;1282;58173;-77
2023/04/16 03:05:42;;;;;;;22.40;11.10;;;;;;;4.62;100.00;101879.78;107179;1282;58293;-77
2023/04/16 03:08:08;;;;;;;22.90;11.70;;;;;;;4.66;100.00;101878.55;107161;1282;58525;-77
2023/04/16 03:10:35;;;;;;;31.50;12.20;;;;;;;4.71;100.00;101873.34;107159;1282;58514;-77
2023/04/16 03:13:00;;;;;;;23.00;11.80;;;;;;;4.77;100.00;101875.51;107229;1282;58163;-77
2023/04/16 03:15:26;;;;;;;25.80;11.60;;;;;;;4.84;100.00;101871.75;107093;1283;58212;-77
2023/04/16 03:17:52;;;;;;;29.70;11.00;;;;;;;4.92;100.00;101878.90;107214;1282;58300;-77
2023/04/16 03:20:18;;;;;;;26.20;12.10;;;;;;;5.00;100.00;101875.73;106941;1282;58273;-76
2023/04/16 03:22:47;;;;;;;21.20;10.70;;;;;;;5.13;100.00;101879.48;106791;1283;58312;-76
2023/04/16 03:25:13;;;;;;;21.80;10.40;;;;;;;5.24;100.00;101880.52;107202;1282;73507;-77
2023/04/16 03:27:38;;;;;;;20.10;10.30;;;;;;;5.36;100.00;101882.27;106799;1282;58606;-76
2023/04/16 03:30:15;;;;;;;26.80;10.40;;;;;;;5.50;100.00;101884.09;107159;1282;58268;-79
2023/04/16 03:32:41;;;;;;;21.60;9.40;;;;;;;5.66;100.00;101891.37;106668;1283;61802;-78
2023/04/16 03:35:07;;;;;;;26.10;9.70;;;;;;;5.79;100.00;101893.55;107197;1282;58314;-77
2023/04/16 03:37:34;;;;;;;20.80;8.90;;;;;;;5.90;100.00;101900.55;106683;1283;58699;-77
2023/04/16 03:40:00;;;;;;;17.60;8.80;;;;;;;6.04;100.00;101905.64;107201;1282;58250;-79
2023/04/16 03:42:26;;;;;;;18.10;8.60;;;;;;;6.18;100.00;101913.38;106793;1282;58588;-77
2023/04/16 03:44:52;;;;;;;22.40;9.10;;;;;;;6.30;100.00;101914.73;107185;1282;58203;-77
2023/04/16 03:47:19;;;;;;;16.50;7.60;;;;;;;6.42;100.00;101916.41;107212;1282;58388;-76
2023/04/16 03:49:44;;;;;;;25.50;8.70;;;;;;;6.56;100.00;101919.59;107211;1282;58286;-77
2023/04/16 03:52:10;;;;;;;16.40;7.30;;;;;;;6.81;100.00;101922.90;107196;1283;58715;-78
2023/04/16 03:54:35;;;;;;;15.40;7.60;;;;;;;7.22;100.00;101929.23;107175;1282;58263;-78
2023/04/16 03:57:01;;;;;;;17.20;6.60;;;;;;;7.66;100.00;101933.94;107209;1282;58612;-78
2023/04/16 03:59:26;;;;;;;17.80;6.60;;;;;;;8.16;100.00;101928.69;107174;1282;58574;-78
2023/04/16 04:01:52;;;;;;;10.30;5.20;;;;;;;8.62;100.00;101926.81;107198;1282;58344;-78
2023/04/16 04:04:17;;;;;;;12.00;6.40;;;;;;;9.15;100.00;101928.39;106673;1283;58457;-78
2023/04/16 04:06:45;;;;;;;15.10;5.10;;;;;;;9.63;100.00;101929.70;107270;1283;58268;-78
2023/04/16 04:09:10;;;;;;;12.00;5.50;;;;;;;9.86;100.00;101931.12;107164;1282;73526;-79
2023/04/16 04:11:36;;;;;;;12.70;5.00;;;;;;;10.33;100.00;101931.80;107220;1282;58300;-78
2023/04/16 04:14:01;;;;;;;11.10;5.60;;;;;;;10.63;100.00;101930.88;107192;1282;58307;-79
2023/04/16 04:16:27;;;;;;;15.60;5.50;;;;;;;10.59;100.00;101934.44;107178;1282;58195;-79
2023/04/16 04:18:52;;;;;;;11.00;5.30;;;;;;;10.83;100.00;101931.48;107273;1282;58284;-79
2023/04/16 04:21:18;;;;;;;10.90;5.00;;;;;;;11.04;100.00;101937.48;107207;1282;59178;-79
2023/04/16 04:23:43;;;;;;;12.20;5.60;;;;;;;10.85;100.00;101939.91;107158;1282;58244;-79
2023/04/16 04:26:09;;;;;;;12.30;5.40;;;;;;;10.42;100.00;101941.48;107173;1282;58332;-78
2023/04/16 04:28:34;;;;;;;15.00;5.90;;;;;;;10.06;100.00;101944.98;106860;1283;58357;-79
2023/04/16 04:31:00;;;;;;;14.10;5.30;;;;;;;9.85;100.00;101947.95;107211;1282;58984;-78
2023/04/16 04:33:27;;;;;;;15.60;6.30;;;;;;;9.62;100.00;101942.73;107164;1282;72440;-79
2023/04/16 04:35:53;;;;;;;13.80;5.70;;;;;;;9.54;100.00;101952.14;106809;1283;58287;-79
2023/04/16 04:38:20;;;;;;;14.20;5.70;;;;;;;9.53;100.00;101951.86;107182;1282;58334;-78
2023/04/16 04:40:47;;;;;;;13.60;5.70;;;;;;;9.75;100.00;101959.25;106845;1283;74486;-79
2023/04/16 04:43:13;;;;;;;13.40;5.50;;;;;;;10.14;100.00;101958.81;107118;1283;74131;-80
2023/04/16 04:45:39;;;;;;;11.90;5.00;;;;;;;10.49;100.00;101953.67;106903;1282;58357;-79
2023/04/16 04:48:04;;;;;;;12.40;5.20;;;;;;;10.95;100.00;101952.89;107148;1282;58195;-78
2023/04/16 04:50:30;;;;;;;10.20;4.90;;;;;;;11.17;100.00;101954.77;106784;1282;58408;-78
2023/04/16 04:52:55;;;;;;;10.80;4.90;;;;;;;11.61;100.00;101957.37;107195;1282;58545;-79
2023/04/16 04:55:21;;;;;;;16.70;5.40;;;;;;;12.03;100.00;101957.55;107213;1282;58290;-79
2023/04/16 04:57:48;;;;;;;13.60;4.60;;;;;;;12.34;99.90;101956.75;107135;1282;61064;-79
2023/04/16 05:00:13;;;;;;;10.30;4.50;;;;;;;12.64;96.91;101949.70;107142;1282;60210;-80
2023/04/16 05:02:39;;;;;;;13.00;4.70;;;;;;;12.39;92.01;101950.59;106937;1283;58316;-79
2023/04/16 05:05:05;;;;;;;9.40;4.50;;;;;;;12.25;94.26;101949.86;107235;1282;58241;-79
2023/04/16 05:07:31;;;;;;;9.40;4.40;;;;;;;12.48;90.72;101949.58;107157;1283;58274;-80
2023/04/16 05:09:56;;;;;;;12.40;5.00;;;;;;;13.04;87.75;101948.05;107127;1283;58180;-79
2023/04/16 05:12:22;;;;;;;13.10;4.90;;;;;;;13.26;85.47;101946.03;107232;1282;58290;-79
2023/04/16 05:14:47;;;;;;;14.40;4.60;;;;;;;13.69;81.09;101952.13;107156;1282;74221;-79
2023/04/16 05:17:13;;;;;;;10.00;4.50;;;;;;;13.80;75.55;101952.03;107163;1282;58181;-80
2023/04/16 05:19:38;;;;;;;16.60;4.40;;;;;;;13.50;73.88;101951.45;106893;1283;58628;-79
2023/04/16 05:22:04;;;;;;;11.00;4.10;;;;;;;13.02;74.35;101952.76;106989;1283;59236;-79
2023/04/16 05:24:30;;;;;;;9.60;4.40;;;;;;;12.75;76.38;101952.19;106843;1283;58742;-81
2023/04/16 05:26:56;;;;;;;10.90;4.40;;;;;;;12.54;76.18;101959.78;107154;1282;73445;-79
2023/04/16 05:29:21;;;;;;;8.90;4.30;;;;;;;12.15;78.12;101959.74;107150;1282;58181;-80
2023/04/16 05:31:47;;;;;;;5.40;3.60;;;;;;;12.42;79.25;101952.23;107210;1282;58294;-79
2023/04/16 05:34:12;;;;;;;11.10;3.90;;;;;;;12.51;80.05;101949.98;107220;1282;58490;-80
2023/04/16 05:36:38;;;;;;;7.20;4.00;;;;;;;12.41;78.14;101960.70;107172;1282;58353;-79
2023/04/16 05:39:03;;;;;;;10.40;4.30;;;;;;;12.43;77.79;101956.99;107178;1282;58497;-80
2023/04/16 05:41:29;;;;;;;9.80;4.00;;;;;;;12.42;77.74;101957.91;107172;1282;58285;-78
2023/04/16 05:43:55;;;;;;;10.10;4.00;;;;;;;12.55;77.60;101949.58;107161;1283;58237;-79
2023/04/16 05:46:20;;;;;;;9.00;3.90;;;;;;;12.80;77.73;101951.08;107183;1283;58245;-81
2023/04/16 05:48:46;;;;;;;6.60;3.80;;;;;;;13.25;75.63;101950.83;107153;1282;58364;-80
2023/04/16 05:51:11;;;;;;;11.10;3.50;;;;;;;13.89;74.50;101949.08;106876;1282;58334;-80
2023/04/16 05:53:37;;;;;;;9.60;3.80;;;;;;;14.46;73.11;101946.44;106934;1283;59273;-80
2023/04/16 05:56:02;;;;;;;12.40;4.20;;;;;;;14.61;67.98;101952.21;107184;1283;58248;-80
2023/04/16 05:58:28;;;;;;;8.90;3.80;;;;;;;14.43;66.26;101951.32;107195;1282;58199;-80
2023/04/16 06:00:53;;;;;;;10.50;3.50;;;;;;;15.01;66.08;101951.25;106867;1283;58208;-81
2023/04/16 06:03:19;;;;;;;8.40;3.50;;;;;;;15.58;63.35;101950.57;107264;1283;58448;-80
2023/04/16 06:05:44;;;;;;;10.80;4.00;;;;;;;15.32;61.05;101948.27;106640;1283;73750;-80
2023/04/16 06:08:10;;;;;;;9.20;3.70;;;;;;;15.01;62.84;101947.34;107151;1282;58289;-81
2023/04/16 06:10:35;;;;;;;13.30;4.00;;;;;;;15.19;61.77;101949.20;107155;1283;58173;-81
2023/04/16 06:13:01;;;;;;;6.50;3.60;;;;;;;14.75;60.89;101945.11;107165;1282;58409;-80
2023/04/16 06:15:26;;;;;;;8.00;3.80;;;;;;;14.50;62.82;101946.17;106920;1283;58518;-80
2023/04/16 06:17:53;;;;;;;7.40;3.50;;;;;;;15.03;63.03;101947.85;107164;1282;72756;-80
2023/04/16 06:20:18;;;;;;;11.60;4.20;;;;;;;15.51;60.04;101944.09;107183;1282;58175;-81
2023/04/16 06:22:44;;;;;;;14.80;3.90;;;;;;;15.31;59.11;101948.81;107171;1282;58277;-80
2023/04/16 06:25:09;;;;;;;7.80;3.40;;;;;;;15.09;60.34;101947.53;107186;1282;58370;-80
2023/04/16 06:27:36;;;;;;;7.10;3.30;;;;;;;15.30;60.32;101952.13;107167;1282;58513;-80
2023/04/16 06:30:01;;;;;;;10.60;3.60;;;;;;;15.69;59.07;101956.27;106857;1284;58596;-81
2023/04/16 06:32:27;;;;;;;9.60;3.90;;;;;;;15.96;58.71;101964.41;106957;1284;58179;-80
2023/04/16 06:34:52;;;;;;;9.90;3.40;;;;;;;16.20;57.96;101975.80;106947;1285;58497;-81
2023/04/16 06:37:18;;;;;;;8.20;3.40;;;;;;;16.31;56.66;101970.38;106799;1286;59091;-81
2023/04/16 06:39:43;;;;;;;8.80;3.80;;;;;;;16.55;57.32;101966.72;107014;1284;58540;-82
2023/04/16 06:42:09;;;;;;;6.30;3.30;;;;;;;17.37;56.98;101960.82;107012;1285;58293;-81
2023/04/16 06:44:35;;;;;;;6.90;3.30;;;;;;;18.09;53.59;101964.83;107108;1286;58225;-81
2023/04/16 06:47:00;;;;;;;9.60;3.60;;;;;;;18.14;52.04;101958.31;107061;1285;74341;-81
2023/04/16 06:49:26;;;;;;;8.60;3.70;;;;;;;18.52;51.75;101965.29;107047;1286;58278;-82
2023/04/16 06:51:51;;;;;;;7.70;3.70;;;;;;;19.07;50.17;101962.79;107069;1284;58192;-81
2023/04/16 06:54:18;;;;;;;6.00;3.40;;;;;;;19.45;49.72;101963.11;107050;1285;58527;-81
2023/04/16 06:56:44;;;;;;;5.40;3.50;;;;;;;20.01;48.29;101957.08;107065;1284;58152;-82
2023/04/16 06:59:09;;;;;;;6.90;3.50;;;;;;;20.35;47.74;101956.42;106784;1284;58419;-83
2023/04/16 07:01:35;;;;;;;7.40;3.80;;;;;;;20.71;46.57;101962.52;107004;1285;60921;-82
2023/04/16 07:04:19;;;;;;;8.10;3.50;;;;;;;20.56;44.92;101956.33;106675;1285;58218;-83
2023/04/16 07:06:45;;;;;;;5.60;2.90;;;;;;;20.22;45.22;101962.36;107038;1284;73608;-81
2023/04/16 07:09:11;;;;;;;7.40;3.10;;;;;;;20.12;45.46;101961.71;107055;1285;58412;-82
2023/04/16 07:11:36;;;;;;;5.80;3.00;;;;;;;20.33;45.22;101958.35;106831;1286;58296;-81
2023/04/16 07:14:02;;;;;;;6.00;3.10;;;;;;;20.37;44.86;101953.06;106910;1284;59021;-82
2023/04/16 07:16:28;;;;;;;5.20;3.10;;;;;;;20.31;44.53;101960.95;107047;1284;60055;-81
2023/04/16 07:18:53;;;;;;;5.30;3.20;;;;;;;20.07;44.66;101955.75;107099;1284;59058;-80
2023/04/16 07:21:19;;;;;;;5.40;2.90;;;;;;;20.18;44.73;101956.73;107002;1285;73441;-81
2023/04/16 07:23:45;;;;;;;10.50;3.10;;;;;;;20.10;44.47;101961.41;107036;1284;58983;-81
2023/04/16 07:26:11;;;;;;;10.90;2.90;;;;;;;20.59;44.98;101956.35;107030;1286;59017;-82
2023/04/16 07:28:36;;;;;;;9.90;4.00;;;;;;;21.36;46.18;101950.56;106707;1286;59129;-81
2023/04/16 07:31:02;;;;;;;5.60;2.80;;;;;;;22.68;45.23;101947.73;107109;1282;60601;-81
2023/04/16 07:33:27;;;;;;;11.60;3.10;;;;;;;23.49;41.38;101952.20;106592;1283;59183;-81
2023/04/16 07:35:53;;;;;;;11.50;2.90;;;;;;;22.63;40.43;101957.20;107266;1282;58946;-82
2023/04/16 07:38:18;;;;;;;6.10;2.80;;;;;;;22.39;41.33;101948.06;107073;1282;59735;-81
2023/04/16 07:40:44;;;;;;;7.50;2.80;;;;;;;22.78;41.73;101947.86;107241;1283;59076;-82
2023/04/16 07:43:09;;;;;;;6.40;3.10;;;;;;;23.30;40.45;101946.17;107189;1283;59037;-81
2023/04/16 07:45:35;;;;;;;7.00;3.40;;;;;;;22.97;39.73;101947.30;107223;1283;58977;-81
2023/04/16 07:48:00;;;;;;;6.50;3.10;;;;;;;22.32;40.18;101946.71;107225;1283;59560;-82
2023/04/16 07:50:26;;;;;;;7.30;3.30;;;;;;;21.45;40.80;101942.98;107243;1283;59472;-81
2023/04/16 07:52:52;;;;;;;4.30;2.60;;;;;;;21.12;41.53;101952.00;106702;1283;59165;-81
2023/04/16 07:55:17;;;;;;;9.20;3.00;;;;;;;20.69;42.21;101947.08;106843;1284;59056;-81
2023/04/16 07:57:43;;;;;;;6.10;2.60;;;;;;;20.61;43.01;101947.84;107254;1283;59129;-81
2023/04/16 08:00:10;;;;;;;8.30;2.90;;;;;;;20.85;42.08;101952.66;106762;1282;73235;-80
2023/04/16 08:02:35;;;;;;;9.80;2.70;;;;;;;20.69;42.87;101944.52;106737;1281;73619;-81
2023/04/16 08:05:01;;;;;;;4.90;2.70;;;;;;;20.87;42.48;101950.33;107170;1285;59103;-81
2023/04/16 08:07:26;;;;;;;9.00;2.80;;;;;;;20.95;42.40;101943.88;107059;1282;59094;-80
2023/04/16 08:09:53;;;;;;;7.60;2.60;;;;;;;21.00;42.41;101944.44;107222;1282;59729;-81
2023/04/16 08:12:19;;;;;;;3.60;2.20;;;;;;;21.17;42.31;101943.52;106772;1283;59020;-81
2023/04/16 08:14:45;;;;;;;10.20;2.70;;;;;;;21.53;41.60;101947.95;107176;1282;59559;-81
2023/04/16 08:17:12;;;;;;;6.90;3.00;;;;;;;21.32;40.93;101934.58;107058;1282;59084;-80
2023/04/16 08:19:37;;;;;;;6.60;2.70;;;;;;;21.12;41.47;101940.31;107225;1282;59231;-80
2023/04/16 08:22:03;;;;;;;6.00;2.50;;;;;;;21.15;42.25;101939.39;107293;1282;59044;-80
2023/04/16 08:24:29;;;;;;;4.50;2.50;;;;;;;21.35;41.42;101937.83;107054;1283;59215;-81
2023/04/16 08:26:54;;;;;;;8.30;2.60;;;;;;;21.23;41.51;101943.33;107179;1282;59041;-81
2023/04/16 08:29:20;;;;;;;10.30;2.70;;;;;;;21.11;42.07;101938.37;107192;1281;59092;-80
2023/04/16 08:31:46;;;;;;;6.60;2.30;;;;;;;21.32;42.57;101933.91;107211;1281;59137;-78
2023/04/16 08:34:12;;;;;;;6.80;2.30;;;;;;;21.10;41.85;101934.54;107182;1282;59163;-80
2023/04/16 08:36:39;;;;;;;6.00;2.50;;;;;;;20.97;42.05;101932.16;107206;1283;58950;-80
2023/04/16 08:39:05;;;;;;;5.70;2.50;;;;;;;20.83;41.41;101928.26;107190;1283;58824;-80
2023/04/16 08:41:33;;;;;;;6.20;2.40;;;;;;;20.43;42.81;101923.79;106754;1283;59181;-80
2023/04/16 08:44:03;;;;;;;5.40;2.60;;;;;;;20.57;42.74;101917.98;107206;1282;73381;-80
2023/04/16 08:46:30;;;;;;;5.00;2.00;;;;;;;20.76;42.68;101916.45;107188;1282;73444;-81
2023/04/16 08:48:58;;;;;;;9.70;2.50;;;;;;;20.86;42.69;101909.46;107159;1283;60170;-80
2023/04/16 08:51:26;;;;;;;8.00;2.90;;;;;;;21.21;42.77;101909.02;107213;1282;59980;-80
2023/04/16 08:53:53;;;;;;;9.40;3.40;;;;;;;21.20;42.06;101902.25;107194;1282;75601;-81
2023/04/16 08:56:22;;;;;;;7.00;2.60;;;;;;;21.07;42.62;101912.27;107170;1283;74474;-81
2023/04/16 08:58:50;;;;;;;6.70;2.60;;;;;;;20.87;42.34;101909.41;107172;1283;72679;-81
2023/04/16 09:01:17;;;;;;;6.10;2.10;;;;;;;20.79;42.39;101912.09;107192;1283;61669;-80
2023/04/16 09:03:47;;;;;;;8.10;2.80;;;;;;;20.51;42.49;101906.16;107181;1283;59992;-80
2023/04/16 09:06:15;;;;;;;6.40;2.20;;;;;;;19.98;42.54;101914.73;107156;1282;74007;-81
2023/04/16 09:08:43;;;;;;;6.60;2.20;;;;;;;19.54;43.40;101910.46;107236;1282;74352;-80
2023/04/16 09:11:08;;;;;;;6.60;2.50;;;;;;;19.32;43.66;101908.97;107199;1283;72585;-79
2023/04/16 09:13:36;;;;;;;3.80;2.50;;;;;;;19.36;44.83;101907.77;107003;1283;59408;-80
2023/04/16 09:16:02;;;;;;;5.40;1.70;;;;;;;19.69;44.21;101900.94;107207;1282;60141;-79
2023/04/16 09:18:29;;;;;;;5.40;1.90;;;;;;;19.72;43.99;101900.64;107075;1283;59039;-80
2023/04/16 09:20:55;;;;;;;5.80;2.30;;;;;;;19.85;43.95;101904.33;107215;1285;59095;-80
2023/04/16 09:23:21;;;;;;;3.80;1.70;;;;;;;19.90;43.83;101898.64;106872;1283;59226;-80
2023/04/16 09:25:47;;;;;;;9.60;2.00;;;;;;;19.78;43.75;101905.23;107150;1282;59030;-80
2023/04/16 09:28:32;;;;;;;7.80;2.00;;;;;;;19.67;43.73;101898.00;107219;1281;59365;-79
2023/04/16 09:31:09;;;;;;;6.90;2.40;;;;;;;19.51;44.18;101901.63;107225;1283;74746;-80
2023/04/16 09:33:35;;;;;;;8.50;2.40;;;;;;;19.43;44.69;101900.52;107201;1282;73268;-79
2023/04/16 09:36:01;;;;;;;3.80;2.10;;;;;;;19.24;44.30;101894.66;107230;1282;59393;-79
2023/04/16 09:38:51;;;;;;;6.10;2.30;;;;;;;19.11;44.65;101896.95;106813;1282;59618;-78
2023/04/16 09:41:17;;;;;;;5.10;2.10;;;;;;;18.88;44.71;101898.04;107217;1283;59967;-80
2023/04/16 09:43:56;;;;;;;5.50;2.10;;;;;;;18.51;45.74;101899.77;106744;1282;59112;-80
2023/04/16 09:46:42;;;;;;;6.20;2.20;;;;;;;18.21;45.38;101901.71;107171;1283;73434;-80
2023/04/16 09:49:10;;;;;;;3.50;1.90;;;;;;;18.05;46.98;101900.41;107176;1283;73771;-78
2023/04/16 09:51:37;;;;;;;8.20;2.30;;;;;;;18.14;46.69;101905.12;107191;1283;61162;-79
2023/04/16 09:54:06;;;;;;;3.40;1.80;;;;;;;17.92;46.61;101907.31;106783;1282;61203;-79
2023/04/16 09:56:31;;;;;;;10.40;1.60;;;;;;;17.72;47.11;101901.60;107150;1282;75539;-79
2023/04/16 09:58:59;;;;;;;6.60;1.80;;;;;;;17.59;47.56;101904.35;107191;1283;59093;-79
2023/04/16 10:01:25;;;;;;;4.40;1.80;;;;;;;17.50;47.23;101906.55;107184;1282;73453;-78
2023/04/16 10:03:53;;;;;;;4.40;1.80;;;;;;;17.19;47.69;101904.80;107202;1283;58975;-80
2023/04/16 10:06:21;;;;;;;10.70;1.90;;;;;;;17.16;48.54;101909.50;107228;1282;60311;-79
2023/04/16 10:08:52;;;;;;;5.40;1.80;;;;;;;17.12;49.02;101902.95;106821;1282;75260;-78
2023/04/16 10:11:19;;;;;;;8.40;2.20;;;;;;;17.02;48.91;101914.70;107232;1283;73468;-79
2023/04/16 10:13:45;;;;;;;3.60;1.80;;;;;;;16.81;49.10;101903.40;107178;1282;73451;-78
2023/04/16 10:16:11;;;;;;;8.90;2.50;;;;;;;16.83;49.88;101899.05;107220;1283;59162;-79
2023/04/16 10:18:39;;;;;;;11.40;4.20;;;;;;;16.75;50.13;101901.48;107190;1283;59049;-79
2023/04/16 10:21:05;;;;;;;5.30;2.00;;;;;;;16.57;50.21;101908.05;106854;1283;74471;-78
2023/04/16 10:23:32;;;;;;;4.40;1.80;;;;;;;16.45;50.31;101917.05;107213;1282;58957;-79
2023/04/16 10:25:59;;;;;;;6.40;2.00;;;;;;;16.32;51.35;101912.05;107014;1283;59095;-79
2023/04/16 10:28:25;;;;;;;8.30;2.20;;;;;;;16.47;51.16;101912.70;107184;1283;61048;-79
2023/04/16 10:30:52;;;;;;;12.20;2.00;;;;;;;16.51;51.10;101907.64;107259;1282;60153;-79
2023/04/16 10:33:29;;;;;;;8.40;2.20;;;;;;;16.62;51.89;101908.28;107226;1282;59181;-79
2023/04/16 10:36:09;;;;;;;10.00;2.40;;;;;;;16.70;51.53;101906.62;106759;1282;72461;-79
2023/04/16 10:38:38;;;;;;;7.00;2.60;;;;;;;16.57;51.12;101905.01;106852;1283;70423;-79
2023/04/16 10:41:05;;;;;;;6.10;2.10;;;;;;;16.56;51.13;101903.27;107016;1282;60025;-80
2023/04/16 10:43:38;;;;;;;8.80;3.40;;;;;;;16.63;51.79;101901.59;107172;1282;61030;-80
2023/04/16 10:46:17;;;;;;;17.50;3.50;;;;;;;16.52;51.42;101904.00;106741;1282;74496;-80
2023/04/16 10:48:43;;;;;;;7.90;2.70;;;;;;;16.50;52.23;101902.42;107252;1283;73634;-80
2023/04/16 10:51:26;;;;;;;8.70;2.80;;;;;;;16.58;51.23;101903.64;107201;1281;59084;-79
2023/04/16 10:53:57;;;;;;;9.20;2.80;;;;;;;16.68;51.55;101897.52;107196;1283;60032;-80
2023/04/16 10:56:26;;;;;;;5.80;2.50;;;;;;;16.79;51.51;101890.54;107206;1281;60396;-80
2023/04/16 10:58:56;;;;;;;7.60;2.60;;;;;;;16.92;52.07;101896.02;107227;1282;74872;-80
2023/04/16 11:01:35;;;;;;;7.90;2.60;;;;;;;16.97;51.85;101885.52;107205;1282;74715;-80
2023/04/16 11:04:25;;;;;;;13.10;2.60;;;;;;;17.01;52.02;101893.30;107197;1282;73617;-80
2023/04/16 11:07:17;;;;;;;11.00;2.90;;;;;;;16.78;51.04;101882.20;107192;1282;61212;-81
2023/04/16 11:09:46;;;;;;;6.20;2.70;;;;;;;16.77;52.17;101882.38;107232;1282;60104;-79